createdAt,value
2023-03-23T15:57:54.461Z,7.28
2023-03-23T15:58:59.747Z,11.13
2023-03-23T16:00:02.297Z,4.32
2023-03-23T16:01:21.030Z,6.30
2023-03-23T16:02:25.726Z,8.73
2023-03-23T16:03:32.278Z,5.70
2023-03-23T16:04:34.786Z,2.25
2023-03-23T16:05:37.303Z,4.82
2023-03-23T16:06:39.941Z,2.88
2023-03-23T16:07:42.583Z,8.88
2023-03-23T16:08:45.342Z,4.20
2023-03-23T16:09:57.223Z,3.80
2023-03-23T16:11:00.342Z,4.65
2023-03-23T16:12:02.991Z,3.13
2023-03-23T16:13:06.348Z,6.25
2023-03-23T16:14:09.134Z,4.00
2023-03-23T16:15:13.069Z,3.72
2023-03-23T16:16:22.471Z,3.50
2023-03-23T16:17:26.536Z,4.95
2023-03-23T16:18:29.027Z,5.00
2023-03-23T16:19:31.792Z,5.53
2023-03-23T16:20:34.436Z,1.98
2023-03-23T16:21:36.832Z,3.10
2023-03-23T16:22:39.470Z,4.95
2023-03-23T16:23:44.509Z,7.75
2023-03-23T16:24:47.418Z,3.55
2023-03-23T16:25:50.155Z,2.95
2023-03-23T16:26:52.557Z,8.40
2023-03-23T16:27:55.086Z,9.60
2023-03-23T16:29:09.607Z,6.78
2023-03-23T16:30:20.038Z,3.55
2023-03-23T16:31:22.811Z,4.78
2023-03-23T16:32:25.521Z,6.93
2023-03-23T16:33:28.084Z,5.10
2023-03-23T16:34:33.778Z,7.70
2023-03-23T16:35:37.135Z,5.38
2023-03-23T16:36:39.717Z,3.17
2023-03-23T16:38:07.015Z,6.15
2023-03-23T16:39:12.238Z,4.82
2023-03-23T16:40:15.959Z,6.45
2023-03-23T16:41:18.478Z,5.93
2023-03-23T16:42:20.898Z,6.38
2023-03-23T16:43:23.403Z,3.58
2023-03-23T16:44:26.162Z,8.55
2023-03-23T16:45:29.281Z,9.52
2023-03-23T16:46:32.468Z,5.80
2023-03-23T16:47:35.658Z,5.30
2023-03-23T16:48:38.415Z,4.47
2023-03-23T16:49:40.934Z,3.90
2023-03-23T16:50:44.782Z,5.75
2023-03-23T16:51:48.242Z,5.30
2023-03-23T16:52:50.769Z,5.15
2023-03-23T16:53:53.295Z,8.30
2023-03-23T16:54:55.814Z,6.90
2023-03-23T16:55:58.449Z,11.85
2023-03-23T16:57:00.979Z,7.88
2023-03-23T16:58:16.481Z,3.72
2023-03-23T16:59:19.819Z,6.57
2023-03-23T17:00:23.188Z,4.10
2023-03-23T17:01:25.744Z,6.63
2023-03-23T17:02:28.468Z,5.57
2023-03-23T17:03:31.070Z,3.53
2023-03-23T17:04:34.218Z,11.38
2023-03-23T17:05:37.579Z,7.65
2023-03-23T17:06:40.093Z,10.48
2023-03-23T17:07:42.622Z,10.60
2023-03-23T17:08:45.137Z,6.38
2023-03-23T17:09:48.139Z,10.73
2023-03-23T17:10:50.793Z,8.88
2023-03-23T17:11:54.503Z,2.00
2023-03-23T17:12:57.027Z,6.10
2023-03-23T17:13:59.539Z,6.72
2023-03-23T17:15:02.188Z,2.15
2023-03-23T17:16:04.960Z,3.40
2023-03-23T17:17:09.880Z,11.30
2023-03-23T17:18:13.462Z,12.07
2023-03-23T17:19:16.225Z,5.63
2023-03-23T17:20:18.982Z,4.75
2023-03-23T17:21:25.703Z,10.32
2023-03-23T17:22:29.186Z,7.68
2023-03-23T17:23:31.722Z,8.35
2023-03-23T17:24:34.226Z,7.07
2023-03-23T17:25:36.748Z,6.45
2023-03-23T17:26:39.318Z,7.80
2023-03-23T17:27:42.894Z,6.45
2023-03-23T17:28:45.681Z,5.68
2023-03-23T17:29:48.275Z,7.50
2023-03-23T17:30:53.327Z,5.25
2023-03-23T17:31:55.905Z,10.57
2023-03-23T17:32:58.385Z,3.65
2023-03-23T17:34:00.992Z,7.30
2023-03-23T17:35:05.584Z,7.78
2023-03-23T17:36:08.347Z,7.60
2023-03-23T17:37:11.557Z,8.93
2023-03-23T17:38:14.076Z,6.28
2023-03-23T17:39:16.594Z,7.47
2023-03-23T17:40:19.125Z,5.13
2023-03-23T17:41:21.646Z,7.30
2023-03-23T17:42:24.409Z,6.95
2023-03-23T17:43:27.165Z,6.10
2023-03-23T17:44:29.688Z,9.02
2023-03-23T17:45:32.334Z,5.10
2023-03-23T17:46:34.998Z,2.38
2023-03-23T17:47:38.228Z,4.35
2023-03-23T17:48:41.563Z,7.20
2023-03-23T17:49:44.368Z,4.78
2023-03-23T17:50:48.528Z,6.32
2023-03-23T17:51:51.047Z,8.07
2023-03-23T17:52:53.688Z,5.40
2023-03-23T17:53:56.453Z,7.32
2023-03-23T17:54:58.862Z,4.25
2023-03-23T17:56:01.728Z,4.32
2023-03-23T17:57:04.516Z,5.45
2023-03-23T17:58:07.010Z,4.57
2023-03-23T17:59:09.528Z,3.50
2023-03-23T18:00:12.536Z,8.55
2023-03-23T18:01:15.663Z,6.15
2023-03-23T18:02:18.832Z,2.45
2023-03-23T18:03:21.986Z,3.67
2023-03-23T18:04:27.058Z,3.97
2023-03-23T18:05:29.570Z,6.15
2023-03-23T18:06:33.289Z,3.85
2023-03-23T18:07:36.656Z,5.00
2023-03-23T18:08:39.786Z,6.30
2023-03-23T18:09:44.662Z,9.20
2023-03-23T18:10:49.376Z,5.40
2023-03-23T18:11:52.536Z,10.70
2023-03-23T18:12:54.906Z,4.50
2023-03-23T18:13:57.538Z,5.40
2023-03-23T18:14:59.942Z,5.85
2023-03-23T18:16:03.987Z,3.92
2023-03-23T18:17:06.539Z,4.82
2023-03-23T18:18:10.383Z,3.90
2023-03-23T18:19:12.908Z,5.07
2023-03-23T18:20:15.433Z,8.52
2023-03-23T18:21:18.091Z,4.28
2023-03-23T18:22:20.704Z,9.48
2023-03-23T18:23:23.350Z,14.45
2023-03-23T18:24:26.008Z,3.85
2023-03-23T18:25:28.505Z,3.95
2023-03-23T18:26:31.149Z,6.57
2023-03-23T18:27:34.638Z,3.38
2023-03-23T18:28:37.628Z,9.00
2023-03-23T18:29:40.389Z,4.80
2023-03-23T18:30:46.901Z,4.00
2023-03-23T18:31:49.439Z,3.72
2023-03-23T18:32:51.812Z,3.22
2023-03-23T18:33:55.329Z,2.92
2023-03-23T18:34:57.927Z,3.50
2023-03-23T18:36:01.851Z,5.53
2023-03-23T18:37:04.510Z,4.78
2023-03-23T18:38:07.054Z,5.10
2023-03-23T18:39:10.884Z,4.72
2023-03-23T18:40:14.597Z,8.82
2023-03-23T18:41:18.342Z,4.07
2023-03-23T18:42:21.444Z,8.73
2023-03-23T18:43:24.681Z,5.72
2023-03-23T18:44:27.199Z,2.50
2023-03-23T18:45:29.725Z,3.15
2023-03-23T18:46:32.294Z,7.07
2023-03-23T18:47:37.466Z,8.35
2023-03-23T18:48:40.049Z,4.65
2023-03-23T18:49:42.564Z,2.92
2023-03-23T18:50:49.529Z,4.43
2023-03-23T18:51:52.052Z,5.10
2023-03-23T18:52:54.696Z,5.70
2023-03-23T18:53:57.204Z,6.00
2023-03-23T18:55:00.158Z,4.13
2023-03-23T18:56:07.058Z,7.63
2023-03-23T18:57:09.617Z,4.10
2023-03-23T18:58:13.415Z,5.72
2023-03-23T18:59:16.061Z,8.75
2023-03-23T19:00:18.929Z,5.75
2023-03-23T19:01:21.585Z,3.63
2023-03-23T19:02:24.161Z,2.95
2023-03-23T19:03:26.923Z,6.38
2023-03-23T19:04:31.902Z,4.85
2023-03-23T19:05:35.384Z,4.25
2023-03-23T19:06:37.898Z,8.02
2023-03-23T19:07:40.422Z,5.93
2023-03-23T19:08:45.300Z,5.55
2023-03-23T19:09:48.238Z,7.75
2023-03-23T19:10:50.860Z,3.38
2023-03-23T19:11:53.502Z,12.73
2023-03-23T19:12:56.148Z,9.52
2023-03-23T19:14:02.779Z,26.98
2023-03-23T19:15:07.196Z,4.00
2023-03-23T19:16:09.853Z,8.18
2023-03-23T19:17:12.356Z,15.90
2023-03-23T19:18:14.986Z,7.65
2023-03-23T19:19:17.507Z,15.77
2023-03-23T19:20:37.487Z,11.18
2023-03-23T19:21:47.056Z,10.60
2023-03-23T19:22:49.909Z,4.40
2023-03-23T19:23:52.432Z,11.38
2023-03-23T19:24:54.954Z,4.70
2023-03-23T19:25:57.714Z,16.45
2023-03-23T19:27:00.352Z,7.88
2023-03-23T19:30:17.400Z,9.23
2023-03-23T19:31:22.757Z,7.10
2023-03-23T19:32:25.350Z,3.80
2023-03-23T19:33:27.725Z,4.38
2023-03-23T19:34:31.096Z,4.57
2023-03-23T19:35:33.492Z,4.32
2023-03-23T19:36:37.024Z,5.15
2023-03-23T19:37:39.632Z,7.32
2023-03-23T19:38:42.247Z,6.32
2023-03-23T19:39:44.759Z,4.65
2023-03-23T19:40:56.012Z,6.35
2023-03-23T19:41:59.401Z,4.22
2023-03-23T19:43:02.455Z,3.28
2023-03-23T19:44:05.882Z,3.38
2023-03-23T19:45:09.134Z,3.67
2023-03-23T19:46:11.924Z,3.45
2023-03-23T19:47:15.195Z,4.15
2023-03-23T19:48:18.514Z,3.65
2023-03-23T19:49:21.127Z,5.95
2023-03-23T19:50:23.650Z,3.72
2023-03-23T19:51:27.586Z,4.32
2023-03-23T19:52:31.171Z,4.05
2023-03-23T19:53:34.331Z,2.80
2023-03-23T19:54:36.855Z,4.25
2023-03-23T19:55:39.746Z,5.40
2023-03-23T19:56:43.433Z,4.43
2023-03-23T19:57:46.098Z,4.97
2023-03-23T19:58:49.215Z,6.43
2023-03-23T19:59:51.734Z,4.82
2023-03-23T20:00:55.454Z,3.75
2023-03-23T20:01:58.002Z,6.00
2023-03-23T20:03:00.790Z,3.13
2023-03-23T20:04:05.064Z,4.88
2023-03-23T20:05:08.709Z,6.63
2023-03-23T20:06:15.087Z,8.80
2023-03-23T20:07:17.660Z,5.50
2023-03-23T20:08:44.693Z,3.75
2023-03-23T20:09:48.528Z,4.05
2023-03-23T20:10:51.152Z,3.88
2023-03-23T20:11:53.788Z,4.18
2023-03-23T20:12:56.192Z,6.78
2023-03-23T20:13:58.955Z,8.93
2023-03-23T20:15:01.465Z,6.20
2023-03-23T20:16:04.467Z,6.72
2023-03-23T20:17:09.938Z,8.65
2023-03-23T20:18:14.762Z,2.70
2023-03-23T20:19:17.716Z,4.82
2023-03-23T20:20:20.450Z,8.43
2023-03-23T20:21:25.039Z,5.00
2023-03-23T20:22:27.982Z,8.43
2023-03-23T20:23:31.110Z,3.95
2023-03-23T20:24:33.750Z,10.48
2023-03-23T20:25:36.965Z,3.28
2023-03-23T20:26:43.722Z,7.70
2023-03-23T20:27:46.592Z,4.75
2023-03-23T20:28:49.113Z,8.13
2023-03-23T20:29:53.678Z,8.20
2023-03-23T20:31:16.745Z,6.03
2023-03-23T20:32:24.633Z,9.50
2023-03-23T20:33:27.279Z,7.72
2023-03-23T20:34:31.115Z,7.45
2023-03-23T20:35:33.632Z,10.93
2023-03-23T20:36:45.350Z,6.45
2023-03-23T20:37:50.678Z,8.55
2023-03-23T20:38:53.436Z,8.80
2023-03-23T20:39:55.958Z,6.82
2023-03-23T20:40:58.477Z,10.20
2023-03-23T20:42:05.885Z,7.75
2023-03-23T20:43:10.790Z,6.05
2023-03-23T20:44:15.871Z,8.32
2023-03-23T20:45:18.768Z,6.35
2023-03-23T20:46:22.120Z,7.93
2023-03-23T20:47:24.703Z,6.57
2023-03-23T20:48:30.042Z,8.68
2023-03-23T20:49:34.975Z,10.77
2023-03-23T20:50:37.606Z,7.35
2023-03-23T20:51:40.512Z,5.57
2023-03-23T20:52:43.025Z,6.75
2023-03-23T20:53:45.529Z,8.40
2023-03-23T20:54:49.253Z,9.93
2023-03-23T20:55:52.139Z,8.30
2023-03-23T20:56:56.251Z,10.77
2023-03-23T20:57:58.850Z,7.80
2023-03-23T20:59:02.148Z,7.82
2023-03-23T21:00:06.665Z,9.13
2023-03-23T21:01:09.372Z,9.70
2023-03-23T21:02:15.341Z,7.50
2023-03-23T21:03:17.812Z,7.43
2023-03-23T21:04:23.576Z,10.07
2023-03-23T21:05:25.976Z,11.20
2023-03-23T21:06:29.110Z,15.77
2023-03-23T21:07:31.756Z,7.90
2023-03-23T21:08:36.603Z,12.88
2023-03-23T21:09:40.511Z,13.02
2023-03-23T21:10:43.673Z,10.43
2023-03-23T21:11:47.233Z,9.98
2023-03-23T21:12:49.739Z,9.43
2023-03-23T21:13:52.271Z,7.43
2023-03-23T21:14:54.906Z,11.13
2023-03-23T21:15:57.424Z,11.68
2023-03-23T21:17:01.750Z,10.48
2023-03-23T21:18:05.187Z,9.27
2023-03-23T21:19:07.986Z,10.20
2023-03-23T21:20:11.639Z,8.30
2023-03-23T21:21:15.064Z,12.93
2023-03-23T21:22:19.029Z,10.45
2023-03-23T21:23:21.424Z,10.45
2023-03-23T21:24:28.998Z,11.30
2023-03-23T21:25:34.422Z,11.95
2023-03-23T21:26:39.672Z,12.23
2023-03-23T21:27:42.304Z,10.00
2023-03-23T21:28:46.388Z,16.67
2023-03-23T21:29:48.912Z,12.88
2023-03-23T21:30:52.537Z,12.93
2023-03-23T21:32:07.529Z,13.05
2023-03-23T21:33:14.120Z,11.55
2023-03-23T21:34:16.749Z,11.75
2023-03-23T21:35:19.281Z,12.63
2023-03-23T21:36:21.669Z,14.05
2023-03-23T21:37:24.912Z,13.25
2023-03-23T21:38:28.062Z,12.45
2023-03-23T21:39:30.674Z,12.15
2023-03-23T21:40:33.193Z,12.85
2023-03-23T21:41:41.659Z,10.32
2023-03-23T21:42:46.632Z,11.38
2023-03-23T21:43:50.117Z,12.18
2023-03-23T21:44:53.836Z,17.58
2023-03-23T21:46:03.112Z,12.38
2023-03-23T21:47:06.555Z,13.85
2023-03-23T21:48:09.983Z,11.80
2023-03-23T21:49:14.489Z,11.93
2023-03-23T21:50:17.864Z,14.30
2023-03-23T21:51:25.165Z,12.05
2023-03-23T21:52:27.801Z,17.08
2023-03-23T21:53:31.040Z,11.73
2023-03-23T21:54:34.391Z,12.95
2023-03-23T21:55:36.921Z,10.73
2023-03-23T21:56:39.772Z,13.82
2023-03-23T21:57:42.564Z,10.88
2023-03-23T21:58:45.085Z,13.52
2023-03-23T21:59:47.844Z,15.88
2023-03-23T22:00:54.252Z,10.45
2023-03-23T22:01:58.353Z,13.02
2023-03-23T22:03:02.961Z,12.50
2023-03-23T22:04:06.450Z,10.57
2023-03-23T22:05:09.807Z,14.90
2023-03-23T22:06:16.170Z,12.52
2023-03-23T22:07:18.808Z,12.23
2023-03-23T22:08:29.385Z,17.75
2023-03-23T22:09:32.032Z,13.10
2023-03-23T22:10:34.659Z,14.52
2023-03-23T22:11:38.620Z,11.73
2023-03-23T22:12:41.857Z,10.63
2023-03-23T22:13:44.858Z,13.57
2023-03-23T22:14:47.380Z,11.15
2023-03-23T22:15:52.097Z,12.25
2023-03-23T22:16:55.066Z,11.50
2023-03-23T22:17:57.752Z,15.60
2023-03-23T22:19:02.269Z,20.77
2023-03-23T22:20:06.982Z,12.88
2023-03-23T22:21:10.057Z,15.57
2023-03-23T22:22:12.720Z,13.32
2023-03-23T22:23:15.581Z,15.20
2023-03-23T22:24:18.956Z,15.27
2023-03-23T22:25:21.589Z,13.98
2023-03-23T22:26:24.586Z,20.67
2023-03-23T22:27:27.224Z,11.23
2023-03-23T22:28:31.063Z,11.50
2023-03-23T22:29:33.606Z,12.93
2023-03-23T22:30:36.232Z,13.05
2023-03-23T22:31:40.035Z,13.55
2023-03-23T22:32:42.747Z,16.20
2023-03-23T22:33:46.796Z,13.75
2023-03-23T22:34:49.437Z,14.85
2023-03-23T22:35:52.176Z,12.65
2023-03-23T22:36:56.161Z,16.27
2023-03-23T22:37:59.037Z,14.55
2023-03-23T22:39:02.540Z,11.48
2023-03-23T22:40:07.345Z,15.43
2023-03-23T22:41:18.371Z,14.80
2023-03-23T22:42:21.002Z,18.30
2023-03-23T22:43:24.608Z,14.52
2023-03-23T22:44:27.490Z,16.45
2023-03-23T22:45:30.259Z,13.50
2023-03-23T22:46:33.007Z,11.82
2023-03-23T22:47:38.335Z,13.60
2023-03-23T22:48:41.047Z,10.32
2023-03-23T22:49:43.810Z,11.55
2023-03-23T22:50:47.422Z,9.23
2023-03-23T22:51:50.180Z,9.45
2023-03-23T22:52:52.702Z,10.25
2023-03-23T22:53:57.018Z,13.65
2023-03-23T22:54:59.773Z,8.77
2023-03-23T22:56:02.658Z,8.75
2023-03-23T22:57:05.487Z,8.45
2023-03-23T22:58:08.314Z,8.75
2023-03-23T22:59:12.262Z,9.55
2023-03-23T23:00:15.171Z,11.80
2023-03-23T23:01:21.081Z,10.35
2023-03-23T23:02:23.917Z,9.00
2023-03-23T23:03:27.151Z,10.95
2023-03-23T23:04:29.815Z,10.23
2023-03-23T23:05:32.435Z,14.10
2023-03-23T23:06:35.066Z,9.43
2023-03-23T23:07:37.825Z,8.93
2023-03-23T23:08:41.676Z,11.10
2023-03-23T23:09:45.261Z,9.50
2023-03-23T23:10:49.843Z,11.32
2023-03-23T23:11:52.467Z,7.82
2023-03-23T23:12:55.102Z,10.63
2023-03-23T23:13:57.746Z,10.32
2023-03-23T23:15:00.382Z,10.43
2023-03-23T23:16:03.625Z,12.13
2023-03-23T23:17:06.455Z,11.88
2023-03-23T23:18:09.159Z,9.10
2023-03-23T23:19:11.904Z,5.82
2023-03-23T23:20:14.551Z,8.80
2023-03-23T23:21:20.319Z,15.57
2023-03-23T23:22:22.952Z,11.55
2023-03-23T23:23:26.552Z,14.20
2023-03-23T23:24:29.553Z,13.10
2023-03-23T23:25:32.792Z,11.18
2023-03-23T23:26:35.549Z,7.28
2023-03-23T23:27:38.314Z,8.00
2023-03-23T23:28:42.515Z,11.10
2023-03-23T23:29:45.033Z,13.55
2023-03-23T23:30:48.539Z,11.32
2023-03-23T23:31:51.515Z,12.48
2023-03-23T23:32:54.325Z,11.70
2023-03-23T23:33:58.730Z,9.57
2023-03-23T23:35:01.841Z,18.58
2023-03-23T23:36:04.743Z,14.68
2023-03-23T23:37:09.118Z,9.70
2023-03-23T23:38:12.796Z,10.82
2023-03-23T23:39:15.521Z,9.65
2023-03-23T23:40:18.757Z,12.40
2023-03-23T23:41:21.283Z,13.68
2023-03-23T23:42:25.021Z,9.75
2023-03-23T23:43:28.122Z,10.70
2023-03-23T23:44:30.645Z,11.05
2023-03-23T23:45:33.416Z,10.70
2023-03-23T23:46:36.066Z,9.45
2023-03-23T23:47:39.090Z,10.18
2023-03-23T23:48:42.044Z,15.00
2023-03-23T23:49:44.447Z,11.35
2023-03-23T23:50:47.614Z,8.43
2023-03-23T23:51:51.649Z,11.95
2023-03-23T23:52:54.291Z,9.90
2023-03-23T23:53:59.150Z,12.90
2023-03-23T23:55:02.212Z,9.35
2023-03-23T23:56:05.091Z,6.45
2023-03-23T23:57:07.520Z,7.80
2023-03-23T23:58:10.129Z,12.85
2023-03-23T23:59:12.649Z,10.00
